sensor_id;sensor_type;location;lat;lon;timestamp;P1;durP1;ratioP1;P2;durP2;ratioP2
8859;SDS011;4466;50.948;4.832;2023-09-19T00:00:20;7.00;;;2.25;;
8859;SDS011;4466;50.948;4.832;2023-09-19T00:02:55;8.25;;;2.47;;
8859;SDS011;4466;50.948;4.832;2023-09-19T00:05:22;10.43;;;2.60;;
8859;SDS011;4466;50.948;4.832;2023-09-19T00:07:49;12.35;;;2.50;;
8859;SDS011;4466;50.948;4.832;2023-09-19T00:10:19;15.52;;;2.72;;
8859;SDS011;4466;50.948;4.832;2023-09-19T00:12:46;8.63;;;2.50;;
8859;SDS011;4466;50.948;4.832;2023-09-19T00:15:12;10.35;;;2.40;;
8859;SDS011;4466;50.948;4.832;2023-09-19T00:17:38;12.02;;;2.45;;
8859;SDS011;4466;50.948;4.832;2023-09-19T00:20:05;11.68;;;2.45;;
8859;SDS011;4466;50.948;4.832;2023-09-19T00:22:39;9.00;;;2.42;;
8859;SDS011;4466;50.948;4.832;2023-09-19T00:25:06;9.23;;;2.38;;
8859;SDS011;4466;50.948;4.832;2023-09-19T00:27:32;7.82;;;2.22;;
8859;SDS011;4466;50.948;4.832;2023-09-19T00:29:58;11.52;;;2.45;;
8859;SDS011;4466;50.948;4.832;2023-09-19T00:32:25;11.45;;;2.60;;
8859;SDS011;4466;50.948;4.832;2023-09-19T00:34:56;8.65;;;2.47;;
8859;SDS011;4466;50.948;4.832;2023-09-19T00:37:22;12.63;;;2.47;;
8859;SDS011;4466;50.948;4.832;2023-09-19T00:39:48;10.57;;;2.15;;
8859;SDS011;4466;50.948;4.832;2023-09-19T00:42:20;9.15;;;2.30;;
8859;SDS011;4466;50.948;4.832;2023-09-19T00:44:46;9.43;;;2.22;;
8859;SDS011;4466;50.948;4.832;2023-09-19T00:47:12;9.05;;;2.17;;
8859;SDS011;4466;50.948;4.832;2023-09-19T00:49:43;8.82;;;2.65;;
8859;SDS011;4466;50.948;4.832;2023-09-19T00:52:17;13.85;;;2.60;;
8859;SDS011;4466;50.948;4.832;2023-09-19T00:54:49;13.10;;;2.55;;
8859;SDS011;4466;50.948;4.832;2023-09-19T00:57:15;8.05;;;2.45;;
8859;SDS011;4466;50.948;4.832;2023-09-19T00:59:44;12.18;;;2.45;;
8859;SDS011;4466;50.948;4.832;2023-09-19T01:02:13;9.73;;;2.40;;
8859;SDS011;4466;50.948;4.832;2023-09-19T01:04:40;9.23;;;2.47;;
8859;SDS011;4466;50.948;4.832;2023-09-19T01:07:07;9.13;;;2.53;;
8859;SDS011;4466;50.948;4.832;2023-09-19T01:09:33;11.27;;;2.63;;
8859;SDS011;4466;50.948;4.832;2023-09-19T01:12:01;10.13;;;2.60;;
8859;SDS011;4466;50.948;4.832;2023-09-19T01:17:24;10.55;;;2.75;;
8859;SDS011;4466;50.948;4.832;2023-09-19T01:25:42;8.43;;;2.05;;
8859;SDS011;4466;50.948;4.832;2023-09-19T01:28:30;12.32;;;2.50;;
8859;SDS011;4466;50.948;4.832;2023-09-19T01:30:56;8.15;;;2.55;;
8859;SDS011;4466;50.948;4.832;2023-09-19T01:33:23;11.45;;;2.58;;
8859;SDS011;4466;50.948;4.832;2023-09-19T01:35:49;8.27;;;2.40;;
8859;SDS011;4466;50.948;4.832;2023-09-19T01:38:15;8.23;;;2.22;;
8859;SDS011;4466;50.948;4.832;2023-09-19T01:40:42;13.73;;;2.80;;
8859;SDS011;4466;50.948;4.832;2023-09-19T01:43:17;8.18;;;2.22;;
8859;SDS011;4466;50.948;4.832;2023-09-19T01:45:57;12.05;;;2.88;;
8859;SDS011;4466;50.948;4.832;2023-09-19T01:51:00;11.20;;;2.90;;
8859;SDS011;4466;50.948;4.832;2023-09-19T01:53:30;7.55;;;2.13;;
8859;SDS011;4466;50.948;4.832;2023-09-19T01:56:00;7.93;;;2.22;;
8859;SDS011;4466;50.948;4.832;2023-09-19T01:58:29;11.00;;;2.40;;
8859;SDS011;4466;50.948;4.832;2023-09-19T02:01:08;8.27;;;2.40;;
8859;SDS011;4466;50.948;4.832;2023-09-19T02:03:37;11.93;;;3.13;;
8859;SDS011;4466;50.948;4.832;2023-09-19T02:06:04;12.52;;;3.03;;
8859;SDS011;4466;50.948;4.832;2023-09-19T02:08:30;10.82;;;2.60;;
8859;SDS011;4466;50.948;4.832;2023-09-19T02:10:58;12.18;;;2.40;;
8859;SDS011;4466;50.948;4.832;2023-09-19T02:13:24;10.57;;;2.97;;
8859;SDS011;4466;50.948;4.832;2023-09-19T02:15:53;13.90;;;3.17;;
8859;SDS011;4466;50.948;4.832;2023-09-19T02:18:18;11.43;;;2.83;;
8859;SDS011;4466;50.948;4.832;2023-09-19T02:20:45;10.30;;;2.40;;
8859;SDS011;4466;50.948;4.832;2023-09-19T02:23:11;10.15;;;2.45;;
8859;SDS011;4466;50.948;4.832;2023-09-19T02:25:38;7.43;;;2.40;;
8859;SDS011;4466;50.948;4.832;2023-09-19T02:28:05;12.43;;;2.53;;
8859;SDS011;4466;50.948;4.832;2023-09-19T02:30:31;8.93;;;2.58;;
8859;SDS011;4466;50.948;4.832;2023-09-19T02:32:58;8.25;;;2.47;;
8859;SDS011;4466;50.948;4.832;2023-09-19T02:35:26;11.65;;;2.80;;
8859;SDS011;4466;50.948;4.832;2023-09-19T02:37:53;13.43;;;2.95;;
8859;SDS011;4466;50.948;4.832;2023-09-19T02:40:18;13.20;;;2.95;;
8859;SDS011;4466;50.948;4.832;2023-09-19T02:42:48;9.27;;;2.90;;
8859;SDS011;4466;50.948;4.832;2023-09-19T02:45:18;11.27;;;2.33;;
8859;SDS011;4466;50.948;4.832;2023-09-19T02:47:47;13.27;;;2.55;;
8859;SDS011;4466;50.948;4.832;2023-09-19T02:50:13;13.77;;;2.63;;
8859;SDS011;4466;50.948;4.832;2023-09-19T02:52:43;10.10;;;2.60;;
8859;SDS011;4466;50.948;4.832;2023-09-19T02:55:12;10.35;;;3.15;;
8859;SDS011;4466;50.948;4.832;2023-09-19T02:57:45;12.68;;;2.70;;
8859;SDS011;4466;50.948;4.832;2023-09-19T03:00:19;9.07;;;2.55;;
8859;SDS011;4466;50.948;4.832;2023-09-19T03:02:50;12.93;;;3.08;;
8859;SDS011;4466;50.948;4.832;2023-09-19T03:05:19;11.05;;;2.30;;
8859;SDS011;4466;50.948;4.832;2023-09-19T03:07:46;12.52;;;2.60;;
8859;SDS011;4466;50.948;4.832;2023-09-19T03:10:18;7.57;;;2.05;;
8859;SDS011;4466;50.948;4.832;2023-09-19T03:12:46;10.48;;;2.58;;
8859;SDS011;4466;50.948;4.832;2023-09-19T03:15:15;13.15;;;3.08;;
8859;SDS011;4466;50.948;4.832;2023-09-19T03:17:45;10.45;;;2.55;;
8859;SDS011;4466;50.948;4.832;2023-09-19T03:20:12;8.98;;;2.58;;
8859;SDS011;4466;50.948;4.832;2023-09-19T03:22:39;15.27;;;2.80;;
8859;SDS011;4466;50.948;4.832;2023-09-19T03:25:05;11.68;;;3.00;;
8859;SDS011;4466;50.948;4.832;2023-09-19T03:27:38;9.55;;;2.55;;
8859;SDS011;4466;50.948;4.832;2023-09-19T03:30:04;10.32;;;2.83;;
8859;SDS011;4466;50.948;4.832;2023-09-19T03:32:34;11.13;;;2.50;;
8859;SDS011;4466;50.948;4.832;2023-09-19T03:35:01;10.93;;;3.10;;
8859;SDS011;4466;50.948;4.832;2023-09-19T03:37:26;14.55;;;3.15;;
8859;SDS011;4466;50.948;4.832;2023-09-19T03:39:52;7.93;;;2.35;;
8859;SDS011;4466;50.948;4.832;2023-09-19T03:42:18;11.27;;;2.90;;
8859;SDS011;4466;50.948;4.832;2023-09-19T03:44:50;8.00;;;2.60;;
8859;SDS011;4466;50.948;4.832;2023-09-19T03:47:17;10.55;;;2.53;;
8859;SDS011;4466;50.948;4.832;2023-09-19T03:49:44;10.07;;;2.72;;
8859;SDS011;4466;50.948;4.832;2023-09-19T03:52:09;10.10;;;2.72;;
8859;SDS011;4466;50.948;4.832;2023-09-19T03:54:36;11.65;;;2.67;;
8859;SDS011;4466;50.948;4.832;2023-09-19T03:57:02;12.00;;;2.80;;
8859;SDS011;4466;50.948;4.832;2023-09-19T03:59:29;8.70;;;2.50;;
8859;SDS011;4466;50.948;4.832;2023-09-19T04:01:55;10.07;;;2.60;;
8859;SDS011;4466;50.948;4.832;2023-09-19T04:04:22;7.78;;;2.47;;
8859;SDS011;4466;50.948;4.832;2023-09-19T04:06:50;7.95;;;2.42;;
8859;SDS011;4466;50.948;4.832;2023-09-19T04:09:16;9.25;;;2.72;;
8859;SDS011;4466;50.948;4.832;2023-09-19T04:11:41;9.88;;;2.53;;
8859;SDS011;4466;50.948;4.832;2023-09-19T04:14:07;12.18;;;2.50;;
8859;SDS011;4466;50.948;4.832;2023-09-19T04:16:33;10.52;;;2.55;;
8859;SDS011;4466;50.948;4.832;2023-09-19T04:18:58;10.75;;;2.30;;
8859;SDS011;4466;50.948;4.832;2023-09-19T04:21:24;11.70;;;2.72;;
8859;SDS011;4466;50.948;4.832;2023-09-19T04:23:50;9.55;;;2.80;;
8859;SDS011;4466;50.948;4.832;2023-09-19T04:26:16;12.25;;;2.95;;
8859;SDS011;4466;50.948;4.832;2023-09-19T04:28:42;10.50;;;2.85;;
8859;SDS011;4466;50.948;4.832;2023-09-19T04:31:09;8.93;;;2.80;;
8859;SDS011;4466;50.948;4.832;2023-09-19T04:33:35;15.18;;;3.45;;
8859;SDS011;4466;50.948;4.832;2023-09-19T04:36:01;12.40;;;2.70;;
8859;SDS011;4466;50.948;4.832;2023-09-19T04:38:28;11.45;;;2.60;;
8859;SDS011;4466;50.948;4.832;2023-09-19T04:40:57;11.15;;;2.97;;
8859;SDS011;4466;50.948;4.832;2023-09-19T04:43:24;7.70;;;2.67;;
8859;SDS011;4466;50.948;4.832;2023-09-19T04:45:49;9.53;;;2.93;;
8859;SDS011;4466;50.948;4.832;2023-09-19T04:48:16;10.93;;;2.67;;
8859;SDS011;4466;50.948;4.832;2023-09-19T04:50:41;11.25;;;2.45;;
8859;SDS011;4466;50.948;4.832;2023-09-19T04:53:08;8.95;;;2.60;;
8859;SDS011;4466;50.948;4.832;2023-09-19T04:55:33;11.00;;;2.47;;
8859;SDS011;4466;50.948;4.832;2023-09-19T04:57:59;13.10;;;3.00;;
8859;SDS011;4466;50.948;4.832;2023-09-19T05:00:25;11.27;;;3.03;;
8859;SDS011;4466;50.948;4.832;2023-09-19T05:02:54;13.50;;;2.70;;
8859;SDS011;4466;50.948;4.832;2023-09-19T05:05:23;13.98;;;3.13;;
8859;SDS011;4466;50.948;4.832;2023-09-19T05:07:50;10.57;;;3.20;;
8859;SDS011;4466;50.948;4.832;2023-09-19T05:10:16;9.57;;;3.20;;
8859;SDS011;4466;50.948;4.832;2023-09-19T05:12:44;14.68;;;3.47;;
8859;SDS011;4466;50.948;4.832;2023-09-19T05:15:13;11.63;;;3.40;;
8859;SDS011;4466;50.948;4.832;2023-09-19T05:17:40;11.38;;;3.60;;
8859;SDS011;4466;50.948;4.832;2023-09-19T05:20:05;11.15;;;3.30;;
8859;SDS011;4466;50.948;4.832;2023-09-19T05:22:49;7.50;;;3.08;;
8859;SDS011;4466;50.948;4.832;2023-09-19T05:25:15;13.05;;;3.17;;
8859;SDS011;4466;50.948;4.832;2023-09-19T05:27:43;10.77;;;2.83;;
8859;SDS011;4466;50.948;4.832;2023-09-19T05:30:09;12.45;;;2.85;;
8859;SDS011;4466;50.948;4.832;2023-09-19T05:32:35;16.17;;;3.60;;
8859;SDS011;4466;50.948;4.832;2023-09-19T05:35:01;11.13;;;2.60;;
8859;SDS011;4466;50.948;4.832;2023-09-19T05:37:28;12.40;;;2.57;;
8859;SDS011;4466;50.948;4.832;2023-09-19T05:39:54;11.37;;;2.70;;
8859;SDS011;4466;50.948;4.832;2023-09-19T05:42:20;12.00;;;2.70;;
8859;SDS011;4466;50.948;4.832;2023-09-19T05:44:45;9.95;;;2.17;;
8859;SDS011;4466;50.948;4.832;2023-09-19T05:47:11;11.88;;;2.40;;
8859;SDS011;4466;50.948;4.832;2023-09-19T05:49:38;6.40;;;2.10;;
8859;SDS011;4466;50.948;4.832;2023-09-19T05:52:06;10.13;;;2.88;;
8859;SDS011;4466;50.948;4.832;2023-09-19T05:54:32;8.63;;;2.40;;
8859;SDS011;4466;50.948;4.832;2023-09-19T05:56:59;7.72;;;2.53;;
8859;SDS011;4466;50.948;4.832;2023-09-19T05:59:25;8.55;;;2.10;;
8859;SDS011;4466;50.948;4.832;2023-09-19T06:01:51;8.57;;;2.15;;
8859;SDS011;4466;50.948;4.832;2023-09-19T06:04:17;11.13;;;2.90;;
8859;SDS011;4466;50.948;4.832;2023-09-19T06:06:44;8.88;;;2.22;;
8859;SDS011;4466;50.948;4.832;2023-09-19T06:09:10;12.38;;;3.10;;
8859;SDS011;4466;50.948;4.832;2023-09-19T06:11:35;14.63;;;3.10;;
8859;SDS011;4466;50.948;4.832;2023-09-19T06:14:01;9.77;;;2.38;;
8859;SDS011;4466;50.948;4.832;2023-09-19T06:16:30;11.85;;;2.75;;
8859;SDS011;4466;50.948;4.832;2023-09-19T06:18:58;13.17;;;2.87;;
8859;SDS011;4466;50.948;4.832;2023-09-19T06:21:27;10.77;;;2.42;;
8859;SDS011;4466;50.948;4.832;2023-09-19T06:23:53;10.88;;;2.53;;
8859;SDS011;4466;50.948;4.832;2023-09-19T06:26:19;9.10;;;2.88;;
8859;SDS011;4466;50.948;4.832;2023-09-19T06:28:45;9.63;;;2.70;;
8859;SDS011;4466;50.948;4.832;2023-09-19T06:31:10;11.52;;;2.75;;
8859;SDS011;4466;50.948;4.832;2023-09-19T06:33:37;10.07;;;2.40;;
8859;SDS011;4466;50.948;4.832;2023-09-19T06:36:04;7.78;;;2.40;;
8859;SDS011;4466;50.948;4.832;2023-09-19T06:38:31;11.98;;;2.85;;
8859;SDS011;4466;50.948;4.832;2023-09-19T06:40:59;10.45;;;2.58;;
8859;SDS011;4466;50.948;4.832;2023-09-19T06:43:26;10.38;;;2.60;;
8859;SDS011;4466;50.948;4.832;2023-09-19T06:45:53;10.13;;;2.80;;
8859;SDS011;4466;50.948;4.832;2023-09-19T06:48:19;15.18;;;2.80;;
8859;SDS011;4466;50.948;4.832;2023-09-19T06:50:46;13.23;;;3.03;;
8859;SDS011;4466;50.948;4.832;2023-09-19T06:53:13;10.32;;;2.67;;
8859;SDS011;4466;50.948;4.832;2023-09-19T06:55:38;11.15;;;2.70;;
8859;SDS011;4466;50.948;4.832;2023-09-19T06:58:04;8.20;;;2.40;;
8859;SDS011;4466;50.948;4.832;2023-09-19T07:00:31;10.88;;;2.75;;
8859;SDS011;4466;50.948;4.832;2023-09-19T07:03:02;9.63;;;2.60;;
8859;SDS011;4466;50.948;4.832;2023-09-19T07:05:29;9.13;;;2.50;;
8859;SDS011;4466;50.948;4.832;2023-09-19T07:07:59;12.20;;;2.65;;
8859;SDS011;4466;50.948;4.832;2023-09-19T07:10:26;10.20;;;2.42;;
8859;SDS011;4466;50.948;4.832;2023-09-19T07:12:59;9.25;;;2.38;;
8859;SDS011;4466;50.948;4.832;2023-09-19T07:15:26;9.85;;;2.60;;
8859;SDS011;4466;50.948;4.832;2023-09-19T07:17:53;8.57;;;2.38;;
8859;SDS011;4466;50.948;4.832;2023-09-19T07:20:21;11.18;;;2.45;;
8859;SDS011;4466;50.948;4.832;2023-09-19T07:22:48;10.88;;;2.58;;
8859;SDS011;4466;50.948;4.832;2023-09-19T07:25:15;8.70;;;2.28;;
8859;SDS011;4466;50.948;4.832;2023-09-19T07:27:41;11.52;;;2.72;;
8859;SDS011;4466;50.948;4.832;2023-09-19T07:30:08;9.25;;;2.50;;
8859;SDS011;4466;50.948;4.832;2023-09-19T07:32:34;8.52;;;2.25;;
8859;SDS011;4466;50.948;4.832;2023-09-19T07:35:02;9.25;;;2.63;;
8859;SDS011;4466;50.948;4.832;2023-09-19T07:37:32;12.10;;;2.67;;
8859;SDS011;4466;50.948;4.832;2023-09-19T07:40:01;8.88;;;2.35;;
8859;SDS011;4466;50.948;4.832;2023-09-19T07:42:37;11.50;;;2.90;;
8859;SDS011;4466;50.948;4.832;2023-09-19T07:45:05;8.50;;;2.65;;
8859;SDS011;4466;50.948;4.832;2023-09-19T07:47:32;9.52;;;2.63;;
8859;SDS011;4466;50.948;4.832;2023-09-19T07:49:59;8.88;;;2.58;;
8859;SDS011;4466;50.948;4.832;2023-09-19T07:52:27;10.13;;;2.47;;
8859;SDS011;4466;50.948;4.832;2023-09-19T07:54:53;10.27;;;2.55;;
8859;SDS011;4466;50.948;4.832;2023-09-19T07:57:19;9.23;;;2.63;;
8859;SDS011;4466;50.948;4.832;2023-09-19T07:59:45;9.07;;;2.58;;
8859;SDS011;4466;50.948;4.832;2023-09-19T08:02:10;10.15;;;2.38;;
8859;SDS011;4466;50.948;4.832;2023-09-19T08:04:44;10.80;;;2.22;;
8859;SDS011;4466;50.948;4.832;2023-09-19T08:07:14;12.30;;;2.45;;
8859;SDS011;4466;50.948;4.832;2023-09-19T08:09:40;11.18;;;2.47;;
8859;SDS011;4466;50.948;4.832;2023-09-19T08:12:06;9.82;;;2.65;;
8859;SDS011;4466;50.948;4.832;2023-09-19T08:14:36;8.63;;;2.80;;
8859;SDS011;4466;50.948;4.832;2023-09-19T08:17:02;10.30;;;2.80;;
8859;SDS011;4466;50.948;4.832;2023-09-19T08:19:30;10.95;;;2.22;;
8859;SDS011;4466;50.948;4.832;2023-09-19T08:22:00;9.60;;;2.50;;
8859;SDS011;4466;50.948;4.832;2023-09-19T08:24:28;10.55;;;2.53;;
8859;SDS011;4466;50.948;4.832;2023-09-19T08:26:55;11.98;;;2.67;;
8859;SDS011;4466;50.948;4.832;2023-09-19T08:29:22;6.43;;;2.20;;
8859;SDS011;4466;50.948;4.832;2023-09-19T08:31:53;9.85;;;2.88;;
8859;SDS011;4466;50.948;4.832;2023-09-19T08:34:25;13.25;;;2.85;;
8859;SDS011;4466;50.948;4.832;2023-09-19T08:36:51;11.45;;;2.88;;
8859;SDS011;4466;50.948;4.832;2023-09-19T08:39:21;12.60;;;2.70;;
8859;SDS011;4466;50.948;4.832;2023-09-19T08:41:59;10.68;;;2.80;;
8859;SDS011;4466;50.948;4.832;2023-09-19T08:44:26;10.00;;;3.00;;
8859;SDS011;4466;50.948;4.832;2023-09-19T08:46:58;9.13;;;2.67;;
8859;SDS011;4466;50.948;4.832;2023-09-19T08:49:59;8.38;;;2.28;;
8859;SDS011;4466;50.948;4.832;2023-09-19T08:52:44;10.18;;;2.33;;
8859;SDS011;4466;50.948;4.832;2023-09-19T08:55:12;12.13;;;2.92;;
8859;SDS011;4466;50.948;4.832;2023-09-19T08:57:45;8.13;;;2.45;;
8859;SDS011;4466;50.948;4.832;2023-09-19T09:00:14;13.77;;;2.97;;
8859;SDS011;4466;50.948;4.832;2023-09-19T09:02:42;13.90;;;3.05;;
8859;SDS011;4466;50.948;4.832;2023-09-19T09:05:09;13.07;;;3.10;;
8859;SDS011;4466;50.948;4.832;2023-09-19T09:07:38;9.02;;;2.33;;
8859;SDS011;4466;50.948;4.832;2023-09-19T09:10:06;11.82;;;2.78;;
8859;SDS011;4466;50.948;4.832;2023-09-19T09:12:32;15.30;;;3.25;;
8859;SDS011;4466;50.948;4.832;2023-09-19T09:15:01;9.85;;;2.80;;
8859;SDS011;4466;50.948;4.832;2023-09-19T09:17:29;11.88;;;2.78;;
8859;SDS011;4466;50.948;4.832;2023-09-19T09:19:55;10.13;;;2.85;;
8859;SDS011;4466;50.948;4.832;2023-09-19T09:22:21;16.42;;;3.05;;
8859;SDS011;4466;50.948;4.832;2023-09-19T09:24:55;12.63;;;2.92;;
8859;SDS011;4466;50.948;4.832;2023-09-19T09:27:29;8.45;;;2.47;;
8859;SDS011;4466;50.948;4.832;2023-09-19T09:29:57;10.95;;;2.63;;
8859;SDS011;4466;50.948;4.832;2023-09-19T09:32:27;10.90;;;2.58;;
8859;SDS011;4466;50.948;4.832;2023-09-19T09:35:01;9.15;;;2.47;;
8859;SDS011;4466;50.948;4.832;2023-09-19T09:37:34;8.20;;;2.78;;
8859;SDS011;4466;50.948;4.832;2023-09-19T09:40:03;9.57;;;2.70;;
8859;SDS011;4466;50.948;4.832;2023-09-19T09:42:50;10.38;;;2.45;;
8859;SDS011;4466;50.948;4.832;2023-09-19T09:45:22;11.02;;;2.53;;
8859;SDS011;4466;50.948;4.832;2023-09-19T09:48:14;8.25;;;2.58;;
8859;SDS011;4466;50.948;4.832;2023-09-19T09:50:46;9.48;;;2.67;;
8859;SDS011;4466;50.948;4.832;2023-09-19T09:53:22;7.45;;;2.42;;
8859;SDS011;4466;50.948;4.832;2023-09-19T09:58:32;7.35;;;2.30;;
8859;SDS011;4466;50.948;4.832;2023-09-19T10:00:59;10.30;;;2.55;;
8859;SDS011;4466;50.948;4.832;2023-09-19T10:03:34;7.30;;;2.10;;
8859;SDS011;4466;50.948;4.832;2023-09-19T10:06:13;10.75;;;2.25;;
8859;SDS011;4466;50.948;4.832;2023-09-19T10:11:58;5.97;;;1.67;;
8859;SDS011;4466;50.948;4.832;2023-09-19T10:14:34;8.73;;;2.10;;
8859;SDS011;4466;50.948;4.832;2023-09-19T10:17:03;7.50;;;2.05;;
8859;SDS011;4466;50.948;4.832;2023-09-19T10:19:37;8.45;;;2.00;;
8859;SDS011;4466;50.948;4.832;2023-09-19T10:22:34;7.10;;;1.92;;
8859;SDS011;4466;50.948;4.832;2023-09-19T10:25:02;7.25;;;1.85;;
8859;SDS011;4466;50.948;4.832;2023-09-19T10:27:32;5.13;;;1.88;;
8859;SDS011;4466;50.948;4.832;2023-09-19T10:30:03;6.30;;;1.70;;
8859;SDS011;4466;50.948;4.832;2023-09-19T10:32:39;6.78;;;1.95;;
8859;SDS011;4466;50.948;4.832;2023-09-19T10:35:06;6.80;;;1.50;;
8859;SDS011;4466;50.948;4.832;2023-09-19T10:37:32;5.15;;;1.98;;
8859;SDS011;4466;50.948;4.832;2023-09-19T10:40:02;5.65;;;1.83;;
8859;SDS011;4466;50.948;4.832;2023-09-19T10:42:33;6.35;;;1.70;;
8859;SDS011;4466;50.948;4.832;2023-09-19T10:45:03;4.80;;;1.73;;
8859;SDS011;4466;50.948;4.832;2023-09-19T10:47:37;6.13;;;1.95;;
8859;SDS011;4466;50.948;4.832;2023-09-19T10:50:03;4.82;;;1.80;;
8859;SDS011;4466;50.948;4.832;2023-09-19T10:52:37;5.50;;;1.75;;
8859;SDS011;4466;50.948;4.832;2023-09-19T10:55:06;7.90;;;1.98;;
8859;SDS011;4466;50.948;4.832;2023-09-19T10:57:34;7.88;;;2.22;;
8859;SDS011;4466;50.948;4.832;2023-09-19T11:00:08;9.32;;;2.00;;
8859;SDS011;4466;50.948;4.832;2023-09-19T11:05:43;5.20;;;1.77;;
8859;SDS011;4466;50.948;4.832;2023-09-19T11:08:29;5.45;;;1.90;;
8859;SDS011;4466;50.948;4.832;2023-09-19T11:30:37;8.85;;;2.22;;
8859;SDS011;4466;50.948;4.832;2023-09-19T11:43:50;6.75;;;1.75;;
8859;SDS011;4466;50.948;4.832;2023-09-19T11:49:17;4.45;;;1.27;;
8859;SDS011;4466;50.948;4.832;2023-09-19T11:51:46;7.40;;;1.58;;
8859;SDS011;4466;50.948;4.832;2023-09-19T11:54:17;7.18;;;1.30;;
8859;SDS011;4466;50.948;4.832;2023-09-19T11:56:50;4.38;;;1.35;;
8859;SDS011;4466;50.948;4.832;2023-09-19T11:59:26;4.30;;;1.55;;
8859;SDS011;4466;50.948;4.832;2023-09-19T12:01:54;4.35;;;1.35;;
8859;SDS011;4466;50.948;4.832;2023-09-19T12:07:03;7.40;;;1.50;;
8859;SDS011;4466;50.948;4.832;2023-09-19T12:09:31;3.30;;;1.02;;
8859;SDS011;4466;50.948;4.832;2023-09-19T12:11:57;5.75;;;1.40;;
8859;SDS011;4466;50.948;4.832;2023-09-19T12:14:24;4.22;;;1.30;;
8859;SDS011;4466;50.948;4.832;2023-09-19T12:16:57;3.72;;;1.17;;
8859;SDS011;4466;50.948;4.832;2023-09-19T12:19:25;2.90;;;1.00;;
8859;SDS011;4466;50.948;4.832;2023-09-19T12:21:55;3.33;;;1.02;;
8859;SDS011;4466;50.948;4.832;2023-09-19T12:24:23;6.68;;;1.48;;
8859;SDS011;4466;50.948;4.832;2023-09-19T12:26:51;4.38;;;1.13;;
8859;SDS011;4466;50.948;4.832;2023-09-19T12:29:20;4.22;;;1.40;;
8859;SDS011;4466;50.948;4.832;2023-09-19T12:34:20;3.60;;;1.17;;
8859;SDS011;4466;50.948;4.832;2023-09-19T12:37:05;4.82;;;1.10;;
8859;SDS011;4466;50.948;4.832;2023-09-19T12:39:40;3.20;;;1.20;;
8859;SDS011;4466;50.948;4.832;2023-09-19T12:42:08;5.75;;;1.48;;
8859;SDS011;4466;50.948;4.832;2023-09-19T12:44:38;3.08;;;1.20;;
8859;SDS011;4466;50.948;4.832;2023-09-19T12:47:10;3.60;;;1.30;;
8859;SDS011;4466;50.948;4.832;2023-09-19T12:55:24;8.02;;;1.70;;
8859;SDS011;4466;50.948;4.832;2023-09-19T13:00:21;3.55;;;1.05;;
8859;SDS011;4466;50.948;4.832;2023-09-19T13:08:26;5.50;;;1.00;;
8859;SDS011;4466;50.948;4.832;2023-09-19T13:13:34;2.28;;;0.88;;
8859;SDS011;4466;50.948;4.832;2023-09-19T13:16:04;2.80;;;1.00;;
8859;SDS011;4466;50.948;4.832;2023-09-19T13:18:46;5.07;;;1.17;;
8859;SDS011;4466;50.948;4.832;2023-09-19T13:21:16;3.85;;;1.13;;
8859;SDS011;4466;50.948;4.832;2023-09-19T13:23:52;6.50;;;1.30;;
8859;SDS011;4466;50.948;4.832;2023-09-19T13:26:27;5.80;;;1.55;;
8859;SDS011;4466;50.948;4.832;2023-09-19T13:28:53;2.63;;;1.08;;
8859;SDS011;4466;50.948;4.832;2023-09-19T13:31:19;3.80;;;1.23;;
8859;SDS011;4466;50.948;4.832;2023-09-19T13:33:48;4.72;;;1.10;;
8859;SDS011;4466;50.948;4.832;2023-09-19T13:36:15;3.00;;;0.95;;
8859;SDS011;4466;50.948;4.832;2023-09-19T13:38:41;4.30;;;1.13;;
8859;SDS011;4466;50.948;4.832;2023-09-19T13:41:10;4.97;;;1.30;;
8859;SDS011;4466;50.948;4.832;2023-09-19T13:43:36;3.60;;;1.00;;
8859;SDS011;4466;50.948;4.832;2023-09-19T13:46:03;5.00;;;1.42;;
8859;SDS011;4466;50.948;4.832;2023-09-19T13:48:29;3.70;;;1.33;;
8859;SDS011;4466;50.948;4.832;2023-09-19T13:50:55;3.40;;;1.13;;
8859;SDS011;4466;50.948;4.832;2023-09-19T13:53:21;4.25;;;1.13;;
8859;SDS011;4466;50.948;4.832;2023-09-19T13:55:48;4.18;;;1.25;;
8859;SDS011;4466;50.948;4.832;2023-09-19T13:58:14;4.70;;;1.13;;
8859;SDS011;4466;50.948;4.832;2023-09-19T14:00:40;4.30;;;1.35;;
8859;SDS011;4466;50.948;4.832;2023-09-19T14:03:05;5.03;;;1.17;;
8859;SDS011;4466;50.948;4.832;2023-09-19T14:05:31;3.38;;;1.25;;
8859;SDS011;4466;50.948;4.832;2023-09-19T14:07:57;3.25;;;1.13;;
8859;SDS011;4466;50.948;4.832;2023-09-19T14:10:24;5.85;;;1.42;;
8859;SDS011;4466;50.948;4.832;2023-09-19T14:12:52;3.65;;;1.30;;
8859;SDS011;4466;50.948;4.832;2023-09-19T14:15:18;3.72;;;1.05;;
8859;SDS011;4466;50.948;4.832;2023-09-19T14:17:44;3.63;;;1.10;;
8859;SDS011;4466;50.948;4.832;2023-09-19T14:20:10;5.60;;;1.20;;
8859;SDS011;4466;50.948;4.832;2023-09-19T14:22:36;2.60;;;1.05;;
8859;SDS011;4466;50.948;4.832;2023-09-19T14:25:05;3.13;;;1.30;;
8859;SDS011;4466;50.948;4.832;2023-09-19T14:27:31;4.00;;;1.33;;
8859;SDS011;4466;50.948;4.832;2023-09-19T14:29:56;4.00;;;1.40;;
8859;SDS011;4466;50.948;4.832;2023-09-19T14:32:22;5.60;;;1.10;;
8859;SDS011;4466;50.948;4.832;2023-09-19T14:34:48;2.58;;;1.15;;
8859;SDS011;4466;50.948;4.832;2023-09-19T14:37:14;3.42;;;1.13;;
8859;SDS011;4466;50.948;4.832;2023-09-19T14:39:41;5.78;;;1.50;;
8859;SDS011;4466;50.948;4.832;2023-09-19T14:42:10;5.38;;;1.48;;
8859;SDS011;4466;50.948;4.832;2023-09-19T14:44:36;4.90;;;1.20;;
8859;SDS011;4466;50.948;4.832;2023-09-19T14:47:05;4.10;;;1.30;;
8859;SDS011;4466;50.948;4.832;2023-09-19T14:49:35;4.38;;;1.35;;
8859;SDS011;4466;50.948;4.832;2023-09-19T14:52:08;3.85;;;1.48;;
8859;SDS011;4466;50.948;4.832;2023-09-19T14:54:35;3.40;;;1.40;;
8859;SDS011;4466;50.948;4.832;2023-09-19T14:57:03;5.72;;;1.70;;
8859;SDS011;4466;50.948;4.832;2023-09-19T14:59:32;2.80;;;1.13;;
8859;SDS011;4466;50.948;4.832;2023-09-19T15:01:59;4.82;;;1.48;;
8859;SDS011;4466;50.948;4.832;2023-09-19T15:04:24;6.25;;;1.48;;
8859;SDS011;4466;50.948;4.832;2023-09-19T15:06:51;7.25;;;1.30;;
8859;SDS011;4466;50.948;4.832;2023-09-19T15:09:20;3.90;;;1.35;;
8859;SDS011;4466;50.948;4.832;2023-09-19T15:11:51;4.57;;;1.40;;
8859;SDS011;4466;50.948;4.832;2023-09-19T15:14:17;3.50;;;1.52;;
8859;SDS011;4466;50.948;4.832;2023-09-19T15:16:43;3.30;;;1.35;;
8859;SDS011;4466;50.948;4.832;2023-09-19T15:19:09;4.22;;;1.25;;
8859;SDS011;4466;50.948;4.832;2023-09-19T15:21:35;2.33;;;1.20;;
8859;SDS011;4466;50.948;4.832;2023-09-19T15:24:02;4.22;;;1.33;;
8859;SDS011;4466;50.948;4.832;2023-09-19T15:26:28;6.05;;;1.60;;
8859;SDS011;4466;50.948;4.832;2023-09-19T15:28:55;2.88;;;1.20;;
8859;SDS011;4466;50.948;4.832;2023-09-19T15:31:21;4.85;;;1.73;;
8859;SDS011;4466;50.948;4.832;2023-09-19T15:33:47;4.38;;;1.48;;
8859;SDS011;4466;50.948;4.832;2023-09-19T15:36:13;6.35;;;1.60;;
8859;SDS011;4466;50.948;4.832;2023-09-19T15:41:33;2.88;;;1.35;;
8859;SDS011;4466;50.948;4.832;2023-09-19T15:44:00;4.30;;;1.40;;
8859;SDS011;4466;50.948;4.832;2023-09-19T15:46:28;5.95;;;1.70;;
8859;SDS011;4466;50.948;4.832;2023-09-19T15:49:03;5.60;;;1.83;;
8859;SDS011;4466;50.948;4.832;2023-09-19T15:51:29;6.90;;;1.60;;
8859;SDS011;4466;50.948;4.832;2023-09-19T15:53:55;4.97;;;1.55;;
8859;SDS011;4466;50.948;4.832;2023-09-19T15:56:22;4.43;;;1.63;;
8859;SDS011;4466;50.948;4.832;2023-09-19T15:58:49;7.47;;;2.00;;
8859;SDS011;4466;50.948;4.832;2023-09-19T16:01:16;4.75;;;1.50;;
8859;SDS011;4466;50.948;4.832;2023-09-19T16:03:44;4.00;;;1.70;;
8859;SDS011;4466;50.948;4.832;2023-09-19T16:06:15;4.85;;;1.60;;
8859;SDS011;4466;50.948;4.832;2023-09-19T16:08:44;4.20;;;1.73;;
8859;SDS011;4466;50.948;4.832;2023-09-19T16:11:11;3.38;;;1.38;;
8859;SDS011;4466;50.948;4.832;2023-09-19T16:13:38;3.83;;;1.38;;
8859;SDS011;4466;50.948;4.832;2023-09-19T16:16:05;5.07;;;1.50;;
8859;SDS011;4466;50.948;4.832;2023-09-19T16:18:33;6.22;;;1.70;;
8859;SDS011;4466;50.948;4.832;2023-09-19T16:21:02;6.40;;;1.90;;
8859;SDS011;4466;50.948;4.832;2023-09-19T16:23:29;5.22;;;1.65;;
8859;SDS011;4466;50.948;4.832;2023-09-19T16:26:04;3.22;;;1.40;;
8859;SDS011;4466;50.948;4.832;2023-09-19T16:28:32;6.00;;;1.48;;
8859;SDS011;4466;50.948;4.832;2023-09-19T16:31:02;3.55;;;1.30;;
8859;SDS011;4466;50.948;4.832;2023-09-19T16:33:32;4.32;;;1.38;;
8859;SDS011;4466;50.948;4.832;2023-09-19T16:35:58;3.10;;;1.23;;